Aviation Digital Data Service (ADDS)

Output produced by METARs form (1643 UTC 23 January 2019)
found at http://www.aviationweather.gov/metar/data/
 
Forecast for: WBGS (SIBU , MY)
Text: TAF WBGS 231100Z 2312/2412 VRB03KT 9999 SCT016
Forecast period: 1200 UTC 23 January 2019 to 1200 UTC 24 January 2019
Forecast type: FROM: standard forecast or significant change
Winds: variable direction winds at 3 MPH (3 knots; 1.5 m/s)
Visibility: 6 or more miles 10+ km)
Ceiling: at least 12,000 feet AGL
Clouds: scattered clouds at 1600 feet AGL
Weather: no significant weather forecast for this period